createdAt,value
2022-08-28T00:02:46.734Z,19.30
2022-08-28T00:07:50.593Z,19.40
2022-08-28T00:12:57.559Z,19.40
2022-08-28T00:18:02.220Z,19.40
2022-08-28T00:23:06.109Z,19.40
2022-08-28T00:28:23.803Z,19.30
2022-08-28T00:33:33.200Z,19.40
2022-08-28T00:38:36.586Z,19.30
2022-08-28T00:43:44.803Z,19.20
2022-08-28T00:48:48.730Z,19.10
2022-08-28T00:53:55.630Z,19.20
2022-08-28T00:59:11.639Z,23.50
2022-08-28T01:04:17.205Z,19.30
2022-08-28T01:09:21.324Z,19.30
2022-08-28T01:14:29.869Z,19.40
2022-08-28T01:19:38.170Z,19.40
2022-08-28T01:24:45.066Z,19.30
2022-08-28T01:29:48.677Z,19.40
2022-08-28T01:34:51.997Z,19.40
2022-08-28T01:39:56.891Z,19.30
2022-08-28T01:45:00.307Z,19.30
2022-08-28T01:50:03.628Z,19.40
2022-08-28T01:55:09.892Z,19.40
2022-08-28T02:00:14.549Z,19.20
2022-08-28T02:05:18.936Z,19.20
2022-08-28T02:10:25.668Z,19.20
2022-08-28T02:15:32.693Z,19.10
2022-08-28T02:20:36.526Z,19.20
2022-08-28T02:25:41.699Z,19.20
2022-08-28T02:30:45.135Z,19.00
2022-08-28T02:35:49.483Z,18.90
2022-08-28T02:40:54.177Z,18.90
2022-08-28T02:45:57.611Z,18.90
2022-08-28T02:51:02.954Z,18.90
2022-08-28T02:56:08.445Z,18.90
2022-08-28T03:01:14.030Z,18.80
2022-08-28T03:06:17.380Z,19.00
2022-08-28T03:11:23.031Z,19.10
2022-08-28T03:16:27.030Z,19.00
2022-08-28T03:21:30.397Z,19.10
2022-08-28T03:26:35.242Z,19.10
2022-08-28T03:31:39.185Z,18.90
2022-08-28T03:36:42.500Z,18.80
2022-08-28T03:41:47.349Z,18.80
2022-08-28T03:46:51.085Z,18.80
2022-08-28T03:51:55.062Z,19.00
2022-08-28T03:57:00.373Z,14.50
2022-08-28T04:02:03.726Z,18.90
2022-08-28T04:07:07.146Z,18.90
2022-08-28T04:12:12.791Z,18.80
2022-08-28T04:17:16.592Z,18.80
2022-08-28T04:22:19.897Z,18.70
2022-08-28T04:27:28.442Z,18.70
2022-08-28T04:32:31.781Z,18.60
2022-08-28T04:37:35.106Z,18.50
2022-08-28T04:42:41.177Z,18.60
2022-08-28T04:47:44.736Z,18.60
2022-08-28T04:52:48.097Z,18.70
2022-08-28T04:57:53.263Z,18.90
2022-08-28T05:02:56.579Z,18.90
2022-08-28T05:08:00.014Z,19.00
2022-08-28T05:13:04.800Z,18.90
2022-08-28T05:18:08.310Z,18.80
2022-08-28T05:23:13.185Z,18.80
2022-08-28T05:28:18.631Z,19.20
2022-08-28T05:33:22.126Z,19.30
2022-08-28T05:38:25.573Z,19.30
2022-08-28T05:43:31.567Z,19.20
2022-08-28T05:48:39.377Z,19.10
2022-08-28T05:53:44.926Z,19.30
2022-08-28T05:58:49.845Z,19.00
2022-08-28T06:03:56.992Z,19.00
2022-08-28T06:09:01.954Z,19.20
2022-08-28T06:14:09.706Z,19.00
2022-08-28T06:19:14.433Z,19.30
2022-08-28T06:24:17.789Z,19.30
2022-08-28T06:29:22.996Z,19.30
2022-08-28T06:34:29.200Z,19.20
2022-08-28T06:39:32.555Z,19.30
2022-08-28T06:44:39.112Z,19.70
2022-08-28T06:49:42.692Z,19.60
2022-08-28T06:54:55.848Z,19.90
2022-08-28T07:00:00.995Z,20.00
2022-08-28T07:05:04.651Z,20.40
2022-08-28T07:10:08.619Z,20.30
2022-08-28T07:15:13.700Z,20.60
2022-08-28T07:20:17.197Z,20.70
2022-08-28T07:25:21.935Z,20.90
2022-08-28T07:30:26.790Z,21.10
2022-08-28T07:35:30.271Z,21.50
2022-08-28T07:40:38.532Z,21.90
2022-08-28T07:45:44.764Z,22.10
2022-08-28T07:50:48.173Z,22.20
2022-08-28T07:55:53.411Z,22.10
2022-08-28T08:00:59.409Z,22.60
2022-08-28T08:06:05.711Z,22.50
2022-08-28T08:11:16.537Z,22.70
2022-08-28T08:16:24.770Z,22.90
2022-08-28T08:21:30.417Z,23.10
2022-08-28T08:26:34.958Z,23.10
2022-08-28T08:31:43.663Z,23.30
2022-08-28T08:36:47.488Z,23.60
2022-08-28T08:41:53.846Z,23.90
2022-08-28T08:47:11.777Z,23.70
2022-08-28T08:52:53.165Z,23.60
2022-08-28T08:58:06.547Z,23.80
2022-08-28T09:03:22.389Z,24.30
2022-08-28T09:08:36.360Z,24.90
2022-08-28T09:13:50.084Z,25.50
2022-08-28T09:18:57.084Z,26.40
2022-08-28T09:24:10.858Z,25.90
2022-08-28T09:29:19.471Z,25.30
2022-08-28T09:34:35.459Z,24.60
2022-08-28T09:39:44.569Z,24.50
2022-08-28T09:45:00.186Z,24.50
2022-08-28T09:50:25.030Z,23.40
2022-08-28T09:55:41.406Z,23.20
2022-08-28T10:00:52.621Z,22.80
2022-08-28T10:06:09.812Z,24.00
2022-08-28T10:11:20.787Z,24.80
2022-08-28T10:16:31.703Z,24.80
2022-08-28T10:21:42.791Z,25.60
2022-08-28T10:26:52.766Z,25.00
2022-08-28T10:32:21.226Z,24.40
2022-08-28T10:37:36.059Z,23.50
2022-08-28T10:42:44.649Z,23.80
2022-08-28T10:47:53.711Z,24.00
2022-08-28T10:53:04.202Z,24.10
2022-08-28T10:58:24.165Z,23.80
2022-08-28T11:03:35.298Z,24.40
2022-08-28T11:08:40.924Z,24.70
2022-08-28T11:13:58.236Z,26.40
2022-08-28T11:19:52.455Z,28.10
2022-08-28T11:25:12.767Z,29.20
2022-08-28T11:30:34.197Z,29.00
2022-08-28T11:35:51.438Z,32.50
2022-08-28T11:41:10.715Z,32.10
2022-08-28T11:46:26.366Z,32.20
2022-08-28T11:51:51.003Z,28.00
2022-08-28T11:57:08.015Z,26.90
2022-08-28T12:02:41.382Z,28.10
2022-08-28T12:07:47.528Z,26.10
2022-08-28T12:12:54.833Z,25.70
2022-08-28T12:17:59.790Z,26.40
2022-08-28T12:23:06.228Z,29.20
2022-08-28T12:28:20.888Z,28.00
2022-08-28T12:33:32.152Z,28.60
2022-08-28T12:38:36.385Z,29.90
2022-08-28T12:43:46.457Z,28.60
2022-08-28T12:48:54.295Z,27.10
2022-08-28T12:53:59.741Z,26.60
2022-08-28T12:59:35.837Z,27.40
2022-08-28T13:04:41.738Z,29.20
2022-08-28T13:09:48.759Z,28.30
2022-08-28T13:14:53.689Z,28.10
2022-08-28T13:20:03.627Z,27.10
2022-08-28T13:25:08.196Z,28.10
2022-08-28T13:30:26.997Z,28.30
2022-08-28T13:35:37.846Z,27.90
2022-08-28T13:40:57.348Z,28.40
2022-08-28T13:46:02.565Z,27.90
2022-08-28T13:51:10.807Z,28.40
2022-08-28T13:56:15.590Z,28.50
2022-08-28T14:01:44.232Z,29.10
2022-08-28T14:06:47.618Z,29.60
2022-08-28T14:11:51.554Z,28.30
2022-08-28T14:16:57.355Z,28.90
2022-08-28T14:22:01.652Z,32.10
2022-08-28T14:27:05.539Z,31.00
2022-08-28T14:32:10.369Z,29.30
2022-08-28T14:37:13.872Z,31.10
2022-08-28T14:42:19.853Z,32.30
2022-08-28T14:47:25.047Z,32.90
2022-08-28T14:52:28.409Z,32.70
2022-08-28T14:57:31.841Z,33.10
2022-08-28T15:02:36.577Z,34.80
2022-08-28T15:07:39.954Z,35.30
2022-08-28T15:12:43.278Z,34.70
2022-08-28T15:17:48.243Z,34.40
2022-08-28T15:22:51.745Z,34.50
2022-08-28T15:27:55.467Z,34.80
2022-08-28T15:33:00.320Z,35.40
2022-08-28T15:38:03.980Z,34.20
2022-08-28T15:43:07.331Z,34.20
2022-08-28T15:48:13.336Z,35.20
2022-08-28T15:53:18.202Z,31.20
2022-08-28T15:58:22.144Z,33.90
2022-08-28T16:03:27.688Z,33.50
2022-08-28T16:08:31.481Z,33.00
2022-08-28T16:13:35.721Z,29.20
2022-08-28T16:18:41.717Z,27.70
2022-08-28T16:23:46.388Z,26.20
2022-08-28T16:28:51.151Z,26.90
2022-08-28T16:33:56.967Z,27.10
2022-08-28T16:39:04.075Z,26.40
2022-08-28T16:44:07.990Z,26.20
2022-08-28T16:49:12.931Z,26.30
2022-08-28T16:54:18.141Z,25.70
2022-08-28T16:59:24.078Z,25.80
2022-08-28T17:04:28.992Z,25.70
2022-08-28T17:09:32.655Z,25.30
2022-08-28T17:14:36.031Z,25.00
2022-08-28T17:19:40.868Z,25.00
2022-08-28T17:24:44.201Z,24.90
2022-08-28T17:29:49.623Z,24.60
2022-08-28T17:34:54.498Z,24.40
2022-08-28T17:39:57.930Z,24.20
2022-08-28T17:45:01.318Z,23.90
2022-08-28T17:50:07.979Z,23.60
2022-08-28T17:55:11.407Z,23.40
2022-08-28T18:00:16.565Z,23.30
2022-08-28T18:05:21.648Z,23.20
2022-08-28T18:10:25.171Z,23.10
2022-08-28T18:15:29.075Z,23.20
2022-08-28T18:20:34.410Z,23.20
2022-08-28T18:25:47.326Z,23.10
2022-08-28T18:30:55.024Z,23.00
2022-08-28T18:36:00.335Z,22.90
2022-08-28T18:41:04.549Z,27.00
2022-08-28T18:46:10.335Z,22.60
2022-08-28T18:51:15.556Z,22.30
2022-08-28T18:56:24.692Z,22.20
2022-08-28T19:01:31.440Z,22.00
2022-08-28T19:06:37.178Z,21.80
2022-08-28T19:11:40.564Z,21.80
2022-08-28T19:16:43.945Z,21.70
2022-08-28T19:21:48.999Z,21.60
2022-08-28T19:26:52.462Z,21.60
2022-08-28T19:31:56.196Z,21.60
2022-08-28T19:37:01.768Z,21.60
2022-08-28T19:42:05.542Z,21.70
2022-08-28T19:47:08.986Z,21.70
2022-08-28T19:52:15.050Z,21.80
2022-08-28T19:57:20.279Z,21.60
2022-08-28T20:02:25.991Z,21.60
2022-08-28T20:07:31.053Z,21.70
2022-08-28T20:12:34.776Z,21.80
2022-08-28T20:17:43.829Z,22.00
2022-08-28T20:22:53.841Z,21.90
2022-08-28T20:28:01.518Z,21.70
2022-08-28T20:33:06.045Z,21.60
2022-08-28T20:38:11.943Z,21.40
2022-08-28T20:43:15.307Z,21.30
2022-08-28T20:48:20.196Z,21.20
2022-08-28T20:53:36.941Z,21.10
2022-08-28T20:58:41.285Z,21.00
2022-08-28T21:03:44.682Z,20.80
2022-08-28T21:08:50.355Z,20.70
2022-08-28T21:13:54.809Z,20.50
2022-08-28T21:19:16.245Z,20.40
2022-08-28T21:24:21.422Z,20.30
2022-08-28T21:29:25.222Z,20.10
2022-08-28T21:34:29.074Z,20.10
2022-08-28T21:39:33.640Z,20.00
2022-08-28T21:44:37.026Z,20.40
2022-08-28T21:49:40.392Z,20.00
2022-08-28T21:54:45.148Z,20.00
2022-08-28T21:59:48.509Z,20.00
2022-08-28T22:04:51.987Z,20.00
2022-08-28T22:09:57.381Z,19.80
2022-08-28T22:15:00.743Z,19.70
2022-08-28T22:20:04.744Z,19.70
2022-08-28T22:25:10.166Z,19.80
2022-08-28T22:30:14.455Z,19.80
2022-08-28T22:35:19.741Z,19.70
2022-08-28T22:40:25.030Z,19.60
2022-08-28T22:45:28.581Z,19.80
2022-08-28T22:50:31.949Z,19.80
2022-08-28T22:55:41.362Z,19.60
2022-08-28T23:00:47.018Z,19.50
2022-08-28T23:05:50.596Z,19.50
2022-08-28T23:10:59.301Z,19.50
2022-08-28T23:16:04.128Z,19.50
2022-08-28T23:21:08.856Z,19.40
2022-08-28T23:26:15.007Z,19.40
2022-08-28T23:31:18.540Z,19.40
2022-08-28T23:36:23.604Z,19.40
2022-08-28T23:41:28.335Z,19.40
2022-08-28T23:46:31.706Z,19.50
2022-08-28T23:51:36.348Z,19.40
2022-08-28T23:56:41.911Z,19.40
